createdAt,value
2022-11-14T00:00:23.385Z,4.31
2022-11-14T00:03:09.587Z,4.30
2022-11-14T00:05:55.368Z,4.32
2022-11-14T00:08:40.857Z,4.30
2022-11-14T00:11:26.367Z,4.24
2022-11-14T00:14:12.221Z,4.25
2022-11-14T00:16:58.093Z,4.25
2022-11-14T00:19:43.747Z,4.27
2022-11-14T00:22:29.593Z,4.26
2022-11-14T00:25:15.027Z,4.29
2022-11-14T00:28:00.437Z,4.31
2022-11-14T00:30:47.277Z,4.27
2022-11-14T00:33:33.038Z,4.31
2022-11-14T00:36:18.584Z,4.34
2022-11-14T00:39:04.862Z,4.26
2022-11-14T00:41:50.434Z,4.21
2022-11-14T00:44:36.455Z,4.33
2022-11-14T00:47:22.136Z,4.27
2022-11-14T00:50:07.797Z,4.33
2022-11-14T00:52:53.192Z,4.32
2022-11-14T00:55:39.119Z,4.34
2022-11-14T00:58:24.608Z,4.41
2022-11-14T01:01:10.012Z,4.31
2022-11-14T01:03:55.889Z,4.34
2022-11-14T01:06:41.315Z,4.36
2022-11-14T01:09:26.828Z,4.39
2022-11-14T01:12:12.594Z,4.41
2022-11-14T01:14:58.137Z,4.41
2022-11-14T01:17:43.685Z,4.35
2022-11-14T01:20:29.340Z,4.36
2022-11-14T01:23:15.641Z,4.41
2022-11-14T01:26:05.680Z,4.35
2022-11-14T01:28:51.526Z,4.31
2022-11-14T01:31:37.309Z,4.37
2022-11-14T01:34:23.382Z,4.36
2022-11-14T01:37:09.630Z,4.38
2022-11-14T01:39:55.160Z,4.33
2022-11-14T01:42:40.959Z,4.37
2022-11-14T01:45:45.708Z,4.39
2022-11-14T01:49:03.549Z,4.34
2022-11-14T01:51:51.181Z,4.24
2022-11-14T01:54:43.327Z,4.25
2022-11-14T01:57:30.896Z,4.31
2022-11-14T02:00:16.564Z,4.26
2022-11-14T02:03:03.107Z,4.25
2022-11-14T02:05:50.239Z,4.18
2022-11-14T02:08:36.683Z,4.19
2022-11-14T02:11:22.563Z,4.20
2022-11-14T02:14:08.226Z,4.19
2022-11-14T02:17:14.875Z,4.23
2022-11-14T02:20:15.378Z,4.17
2022-11-14T02:23:01.133Z,4.16
2022-11-14T02:25:46.666Z,4.09
2022-11-14T02:28:32.515Z,4.07
2022-11-14T02:31:18.300Z,4.05
2022-11-14T02:34:03.674Z,4.05
2022-11-14T02:36:49.539Z,4.01
2022-11-14T02:39:35.368Z,4.02
2022-11-14T02:42:21.181Z,4.01
2022-11-14T02:45:07.109Z,3.98
2022-11-14T02:47:52.819Z,3.94
2022-11-14T02:50:38.847Z,3.83
2022-11-14T02:53:24.407Z,3.76
2022-11-14T02:56:10.219Z,3.64
2022-11-14T02:58:55.829Z,3.57
2022-11-14T03:01:41.558Z,3.50
2022-11-14T03:04:27.555Z,3.52
2022-11-14T03:07:12.921Z,3.42
2022-11-14T03:09:58.598Z,3.38
2022-11-14T03:12:44.428Z,3.34
2022-11-14T03:15:29.812Z,3.27
2022-11-14T03:18:15.154Z,3.23
2022-11-14T03:21:08.149Z,3.11
2022-11-14T03:23:53.788Z,3.11
2022-11-14T03:26:39.636Z,3.00
2022-11-14T03:29:25.270Z,2.87
2022-11-14T03:32:10.874Z,2.80
2022-11-14T03:34:56.607Z,2.80
2022-11-14T03:37:42.458Z,2.84
2022-11-14T03:40:27.979Z,2.80
2022-11-14T03:43:13.804Z,2.64
2022-11-14T03:46:00.552Z,2.62
2022-11-14T03:48:45.911Z,2.62
2022-11-14T03:51:31.653Z,2.72
2022-11-14T03:54:17.021Z,2.60
2022-11-14T03:57:02.606Z,2.46
2022-11-14T03:59:48.320Z,2.06
2022-11-14T04:02:33.935Z,1.95
2022-11-14T04:05:19.624Z,2.07
2022-11-14T04:08:05.692Z,2.29
2022-11-14T04:10:51.521Z,2.43
2022-11-14T04:13:37.308Z,2.42
2022-11-14T04:16:23.085Z,2.50
2022-11-14T04:19:08.622Z,2.45
2022-11-14T04:21:54.544Z,2.42
2022-11-14T04:24:40.301Z,2.39
2022-11-14T04:27:25.510Z,2.31
2022-11-14T04:30:11.556Z,2.39
2022-11-14T04:32:57.147Z,2.35
2022-11-14T04:35:42.800Z,2.30
2022-11-14T04:38:29.094Z,2.18
2022-11-14T04:41:14.826Z,2.04
2022-11-14T04:44:00.606Z,1.99
2022-11-14T04:46:46.180Z,1.76
2022-11-14T04:49:31.679Z,1.74
2022-11-14T04:52:17.470Z,1.69
2022-11-14T04:55:03.262Z,1.72
2022-11-14T04:57:53.794Z,1.51
2022-11-14T05:00:39.204Z,1.26
2022-11-14T05:03:25.320Z,1.24
2022-11-14T05:06:11.162Z,1.25
2022-11-14T05:08:56.775Z,1.37
2022-11-14T05:11:42.457Z,1.38
2022-11-14T05:14:28.078Z,1.60
2022-11-14T05:17:13.517Z,1.66
2022-11-14T05:19:58.968Z,1.66
2022-11-14T05:22:44.813Z,1.69
2022-11-14T05:25:30.271Z,1.67
2022-11-14T05:28:16.067Z,1.67
2022-11-14T05:31:13.529Z,1.77
2022-11-14T05:33:59.419Z,1.75
2022-11-14T05:36:44.896Z,1.64
2022-11-14T05:39:31.185Z,1.56
2022-11-14T05:42:16.875Z,1.54
2022-11-14T05:45:02.661Z,1.40
2022-11-14T05:47:48.421Z,1.37
2022-11-14T05:50:34.221Z,1.49
2022-11-14T05:53:19.826Z,1.61
2022-11-14T05:56:07.216Z,1.49
2022-11-14T05:58:53.052Z,1.41
2022-11-14T06:01:38.968Z,1.31
2022-11-14T06:04:24.722Z,1.21
2022-11-14T06:07:10.650Z,1.21
2022-11-14T06:09:56.404Z,1.19
2022-11-14T06:12:42.054Z,1.32
2022-11-14T06:15:27.574Z,1.48
2022-11-14T06:18:13.131Z,1.51
2022-11-14T06:20:59.148Z,1.45
2022-11-14T06:23:45.749Z,1.37
2022-11-14T06:26:31.966Z,1.41
2022-11-14T06:29:17.491Z,1.45
2022-11-14T06:32:03.314Z,1.38
2022-11-14T06:34:49.047Z,1.29
2022-11-14T06:37:35.964Z,1.34
2022-11-14T06:40:21.793Z,1.43
2022-11-14T06:43:07.171Z,1.41
2022-11-14T06:45:55.933Z,1.45
2022-11-14T06:48:42.308Z,1.21
2022-11-14T06:51:27.988Z,1.09
2022-11-14T06:54:13.741Z,1.15
2022-11-14T06:56:59.563Z,1.28
2022-11-14T06:59:45.548Z,1.28
2022-11-14T07:02:31.321Z,1.30
2022-11-14T07:05:16.811Z,1.26
2022-11-14T07:08:02.295Z,1.17
2022-11-14T07:10:47.848Z,1.16
2022-11-14T07:13:34.092Z,1.23
2022-11-14T07:16:20.263Z,1.24
2022-11-14T07:19:06.820Z,1.35
2022-11-14T07:21:52.377Z,1.45
2022-11-14T07:24:38.104Z,1.61
2022-11-14T07:27:23.879Z,1.70
2022-11-14T07:30:09.767Z,1.74
2022-11-14T07:32:56.148Z,1.79
2022-11-14T07:35:41.962Z,1.88
2022-11-14T07:38:28.078Z,1.92
2022-11-14T07:41:15.953Z,2.10
2022-11-14T07:44:01.376Z,2.20
2022-11-14T07:46:47.307Z,2.32
2022-11-14T07:49:35.358Z,2.46
2022-11-14T07:52:20.895Z,2.66
2022-11-14T07:55:06.543Z,2.73
2022-11-14T07:57:53.230Z,2.79
2022-11-14T08:00:38.722Z,2.99
2022-11-14T08:03:24.361Z,3.21
2022-11-14T08:06:11.740Z,3.39
2022-11-14T08:08:57.500Z,3.47
2022-11-14T08:11:49.062Z,3.51
2022-11-14T08:14:35.213Z,3.78
2022-11-14T08:17:21.857Z,3.84
2022-11-14T08:20:08.266Z,3.94
2022-11-14T08:22:54.782Z,4.08
2022-11-14T08:25:41.009Z,4.30
2022-11-14T08:28:27.276Z,4.42
2022-11-14T08:31:13.700Z,4.42
2022-11-14T08:33:59.391Z,4.53
2022-11-14T08:36:45.301Z,4.80
2022-11-14T08:39:31.041Z,4.94
2022-11-14T08:42:16.509Z,5.00
2022-11-14T08:45:02.464Z,5.17
2022-11-14T08:47:51.969Z,5.38
2022-11-14T08:50:37.495Z,5.46
2022-11-14T08:53:23.121Z,5.47
2022-11-14T08:56:09.873Z,5.52
2022-11-14T08:58:55.765Z,5.67
2022-11-14T09:01:42.364Z,5.65
2022-11-14T09:04:27.939Z,5.67
2022-11-14T09:07:14.292Z,5.83
2022-11-14T09:09:59.902Z,5.71
2022-11-14T09:12:45.690Z,5.78
2022-11-14T09:15:31.512Z,5.99
2022-11-14T09:18:17.092Z,6.09
2022-11-14T09:21:03.688Z,6.04
2022-11-14T09:23:49.478Z,6.12
2022-11-14T09:26:35.068Z,6.36
2022-11-14T09:29:20.805Z,6.37
2022-11-14T09:32:06.372Z,6.51
2022-11-14T09:34:52.286Z,6.41
2022-11-14T09:37:38.439Z,6.62
2022-11-14T09:40:23.938Z,6.70
2022-11-14T09:43:28.418Z,6.72
2022-11-14T09:46:25.731Z,6.87
2022-11-14T09:49:20.054Z,6.93
2022-11-14T09:52:29.121Z,7.04
2022-11-14T09:55:20.071Z,7.12
2022-11-14T09:58:06.346Z,7.16
2022-11-14T10:00:55.833Z,7.28
2022-11-14T10:03:49.964Z,7.35
2022-11-14T10:06:40.235Z,7.35
2022-11-14T10:09:37.938Z,7.35
2022-11-14T10:12:34.395Z,7.27
2022-11-14T10:15:31.102Z,7.46
2022-11-14T10:18:33.337Z,7.62
2022-11-14T10:21:24.828Z,7.63
2022-11-14T10:24:22.950Z,7.72
2022-11-14T10:27:16.015Z,7.76
2022-11-14T10:30:01.635Z,7.87
2022-11-14T10:32:58.346Z,8.00
2022-11-14T10:35:50.526Z,8.15
2022-11-14T10:38:40.122Z,8.14
2022-11-14T10:41:50.362Z,8.27
2022-11-14T10:44:37.464Z,8.43
2022-11-14T10:47:25.453Z,8.55
2022-11-14T10:50:25.323Z,8.69
2022-11-14T10:53:16.151Z,8.65
2022-11-14T10:56:05.522Z,8.66
2022-11-14T10:58:51.511Z,8.71
2022-11-14T11:01:38.880Z,8.78
2022-11-14T11:04:26.245Z,8.84
2022-11-14T11:07:32.265Z,8.90
2022-11-14T11:10:41.230Z,8.86
2022-11-14T11:13:37.397Z,8.91
2022-11-14T11:16:24.148Z,8.85
2022-11-14T11:19:39.013Z,8.93
2022-11-14T11:22:29.515Z,8.96
2022-11-14T11:25:22.677Z,8.88
2022-11-14T11:28:11.045Z,8.93
2022-11-14T11:30:57.816Z,9.00
2022-11-14T11:33:44.146Z,9.03
2022-11-14T11:36:31.505Z,9.08
2022-11-14T11:39:23.402Z,9.15
2022-11-14T11:42:13.603Z,9.21
2022-11-14T11:45:02.291Z,9.31
2022-11-14T11:47:56.264Z,9.40
2022-11-14T11:50:42.284Z,9.37
2022-11-14T11:53:39.228Z,9.39
2022-11-14T11:56:26.281Z,9.41
2022-11-14T11:59:11.727Z,9.41
2022-11-14T12:02:12.981Z,9.34
2022-11-14T12:05:00.724Z,9.37
2022-11-14T12:07:55.039Z,9.41
2022-11-14T12:10:41.750Z,9.47
2022-11-14T12:13:45.779Z,9.51
2022-11-14T12:16:57.462Z,9.53
2022-11-14T12:19:46.165Z,9.58
2022-11-14T12:22:37.852Z,9.61
2022-11-14T12:25:44.088Z,9.70
2022-11-14T12:28:40.525Z,9.75
2022-11-14T12:31:28.964Z,9.76
2022-11-14T12:34:30.728Z,9.77
2022-11-14T12:37:18.452Z,9.81
2022-11-14T12:40:08.676Z,9.86
2022-11-14T12:42:54.532Z,9.88
2022-11-14T12:45:40.081Z,9.95
2022-11-14T12:48:25.462Z,9.99
2022-11-14T12:51:26.422Z,10.03
2022-11-14T12:54:32.083Z,10.02
2022-11-14T12:57:47.186Z,10.06
2022-11-14T13:00:39.751Z,10.12
2022-11-14T13:03:37.600Z,10.12
2022-11-14T13:06:26.945Z,10.19
2022-11-14T13:09:21.886Z,10.16
2022-11-14T13:12:58.621Z,10.20
2022-11-14T13:16:07.577Z,10.20
2022-11-14T13:19:32.360Z,10.14
2022-11-14T13:22:20.517Z,10.11
2022-11-14T13:25:06.361Z,10.07
2022-11-14T13:28:18.913Z,10.05
2022-11-14T13:31:15.800Z,10.07
2022-11-14T13:34:04.466Z,10.03
2022-11-14T13:36:50.257Z,10.09
2022-11-14T13:39:43.623Z,10.12
2022-11-14T13:42:47.539Z,10.15
2022-11-14T13:45:35.693Z,10.13
2022-11-14T13:48:24.386Z,10.09
2022-11-14T13:51:36.741Z,10.03
2022-11-14T13:54:18.803Z,10.04
2022-11-14T13:57:14.486Z,10.01
2022-11-14T14:00:16.807Z,9.95
2022-11-14T14:03:11.885Z,9.86
2022-11-14T14:06:06.616Z,9.80
2022-11-14T14:09:00.668Z,9.74
2022-11-14T14:12:04.916Z,9.69
2022-11-14T14:14:51.056Z,9.65
2022-11-14T14:17:45.750Z,9.57
2022-11-14T14:20:37.483Z,9.50
2022-11-14T14:23:22.873Z,9.46
2022-11-14T14:26:24.518Z,9.41
2022-11-14T14:29:12.903Z,9.33
2022-11-14T14:32:12.651Z,9.31
2022-11-14T14:34:59.549Z,9.29
2022-11-14T14:37:50.453Z,9.23
2022-11-14T14:40:36.888Z,9.16
2022-11-14T14:43:42.557Z,9.11
2022-11-14T14:46:30.095Z,9.03
2022-11-14T14:49:20.252Z,8.99
2022-11-14T14:52:22.288Z,8.94
2022-11-14T14:55:17.685Z,8.87
2022-11-14T14:58:23.555Z,8.83
2022-11-14T15:01:11.900Z,8.83
2022-11-14T15:04:04.971Z,8.80
2022-11-14T15:06:51.515Z,8.74
2022-11-14T15:09:37.593Z,8.66
2022-11-14T15:12:27.412Z,8.61
2022-11-14T15:15:13.881Z,8.58
2022-11-14T15:18:02.286Z,8.53
2022-11-14T15:21:06.257Z,8.50
2022-11-14T15:23:59.400Z,8.46
2022-11-14T15:26:45.851Z,8.43
2022-11-14T15:29:32.940Z,8.43
2022-11-14T15:32:22.857Z,8.41
2022-11-14T15:35:10.574Z,8.37
2022-11-14T15:38:22.151Z,8.38
2022-11-14T15:41:19.626Z,8.37
2022-11-14T15:44:05.639Z,8.36
2022-11-14T15:46:51.671Z,8.34
2022-11-14T15:49:38.285Z,8.30
2022-11-14T15:52:41.168Z,8.29
2022-11-14T15:55:27.152Z,8.25
2022-11-14T15:58:27.720Z,8.21
2022-11-14T16:01:18.443Z,8.21
2022-11-14T16:04:04.126Z,8.17
2022-11-14T16:06:50.332Z,8.13
2022-11-14T16:09:36.268Z,8.09
2022-11-14T16:12:21.720Z,8.05
2022-11-14T16:15:07.662Z,8.02
2022-11-14T16:17:53.420Z,7.99
2022-11-14T16:20:39.611Z,7.95
2022-11-14T16:23:25.130Z,7.93
2022-11-14T16:26:11.017Z,7.87
2022-11-14T16:28:57.083Z,7.85
2022-11-14T16:31:42.772Z,7.81
2022-11-14T16:34:28.502Z,7.75
2022-11-14T16:37:14.787Z,7.71
2022-11-14T16:40:00.357Z,7.67
2022-11-14T16:42:46.358Z,7.58
2022-11-14T16:45:31.874Z,7.55
2022-11-14T16:48:17.434Z,7.52
2022-11-14T16:51:14.764Z,7.50
2022-11-14T16:54:00.642Z,7.48
2022-11-14T16:56:46.988Z,7.43
2022-11-14T16:59:32.845Z,7.38
2022-11-14T17:02:18.802Z,7.37
2022-11-14T17:05:04.965Z,7.35
2022-11-14T17:07:50.528Z,7.31
2022-11-14T17:10:40.067Z,7.27
2022-11-14T17:13:25.690Z,7.23
2022-11-14T17:16:11.218Z,7.20
2022-11-14T17:18:56.795Z,7.14
2022-11-14T17:21:43.031Z,7.06
2022-11-14T17:24:31.550Z,7.06
2022-11-14T17:27:17.308Z,7.04
2022-11-14T17:30:03.244Z,7.02
2022-11-14T17:32:53.750Z,7.00
2022-11-14T17:35:42.013Z,6.97
2022-11-14T17:38:27.645Z,6.95
2022-11-14T17:41:13.480Z,6.95
2022-11-14T17:44:02.492Z,6.94
2022-11-14T17:46:48.289Z,6.90
2022-11-14T17:49:34.230Z,6.86
2022-11-14T17:52:19.544Z,6.81
2022-11-14T17:55:05.397Z,6.78
2022-11-14T17:57:51.217Z,6.74
2022-11-14T18:00:37.169Z,6.73
2022-11-14T18:03:23.076Z,6.71
2022-11-14T18:06:09.955Z,6.69
2022-11-14T18:08:55.940Z,6.65
2022-11-14T18:11:41.435Z,6.59
2022-11-14T18:14:27.144Z,6.48
2022-11-14T18:17:13.614Z,6.44
2022-11-14T18:20:00.760Z,6.38
2022-11-14T18:22:46.246Z,6.32
2022-11-14T18:25:32.019Z,6.31
2022-11-14T18:28:17.470Z,6.31
2022-11-14T18:31:04.646Z,6.31
2022-11-14T18:33:50.277Z,6.28
2022-11-14T18:36:35.935Z,6.26
2022-11-14T18:39:21.535Z,6.28
2022-11-14T18:42:07.257Z,6.25
2022-11-14T18:44:53.143Z,6.26
2022-11-14T18:47:39.078Z,6.25
2022-11-14T18:50:24.766Z,6.24
2022-11-14T18:53:10.516Z,6.22
2022-11-14T18:55:56.350Z,6.22
2022-11-14T18:58:42.581Z,6.21
2022-11-14T19:01:29.621Z,6.20
2022-11-14T19:04:19.636Z,6.17
2022-11-14T19:07:05.466Z,6.13
2022-11-14T19:09:51.084Z,6.12
2022-11-14T19:12:37.045Z,6.11
2022-11-14T19:15:22.806Z,6.06
2022-11-14T19:18:08.713Z,6.02
2022-11-14T19:21:01.703Z,5.98
2022-11-14T19:23:47.159Z,5.93
2022-11-14T19:26:33.268Z,5.88
2022-11-14T19:29:18.928Z,5.85
2022-11-14T19:32:04.446Z,5.80
2022-11-14T19:34:49.882Z,5.78
2022-11-14T19:37:35.620Z,5.75
2022-11-14T19:40:21.530Z,5.72
2022-11-14T19:43:09.072Z,5.70
2022-11-14T19:45:58.197Z,5.68
2022-11-14T19:48:43.985Z,5.67
2022-11-14T19:51:30.334Z,5.66
2022-11-14T19:54:17.167Z,5.65
2022-11-14T19:57:02.812Z,5.65
2022-11-14T19:59:48.657Z,5.65
2022-11-14T20:02:38.497Z,5.67
2022-11-14T20:05:23.878Z,5.65
2022-11-14T20:08:09.662Z,5.63
2022-11-14T20:11:02.578Z,5.62
2022-11-14T20:13:48.914Z,5.63
2022-11-14T20:16:35.588Z,5.63
2022-11-14T20:19:21.049Z,5.62
2022-11-14T20:22:06.850Z,5.61
2022-11-14T20:24:52.544Z,5.61
2022-11-14T20:27:38.606Z,5.60
2022-11-14T20:30:24.290Z,5.60
2022-11-14T20:33:10.642Z,5.55
2022-11-14T20:35:56.353Z,5.58
2022-11-14T20:38:42.141Z,5.59
2022-11-14T20:41:27.576Z,5.59
2022-11-14T20:44:13.658Z,5.58
2022-11-14T20:46:59.273Z,5.54
2022-11-14T20:49:46.896Z,5.55
2022-11-14T20:52:32.407Z,5.56
2022-11-14T20:55:18.374Z,5.62
2022-11-14T20:58:04.002Z,5.64
2022-11-14T21:00:50.223Z,5.63
2022-11-14T21:03:36.453Z,5.60
2022-11-14T21:06:22.183Z,5.57
2022-11-14T21:09:08.139Z,5.53
2022-11-14T21:11:53.847Z,5.49
2022-11-14T21:14:39.546Z,5.45
2022-11-14T21:17:25.455Z,5.41
2022-11-14T21:20:11.312Z,5.39
2022-11-14T21:22:57.103Z,5.36
2022-11-14T21:25:42.890Z,5.34
2022-11-14T21:28:29.650Z,5.30
2022-11-14T21:31:24.137Z,5.27
2022-11-14T21:34:14.146Z,5.23
2022-11-14T21:36:59.698Z,5.20
2022-11-14T21:39:48.356Z,5.19
2022-11-14T21:42:34.279Z,5.14
2022-11-14T21:45:19.713Z,5.13
2022-11-14T21:48:05.782Z,5.11
2022-11-14T21:50:51.777Z,5.09
2022-11-14T21:53:38.914Z,5.05
2022-11-14T21:56:25.991Z,5.05
2022-11-14T21:59:13.556Z,5.01
2022-11-14T22:02:38.193Z,4.98
2022-11-14T22:05:23.857Z,4.95
2022-11-14T22:08:09.339Z,4.92
2022-11-14T22:11:00.149Z,4.89
2022-11-14T22:13:45.524Z,4.87
2022-11-14T22:16:31.423Z,4.87
2022-11-14T22:19:16.936Z,4.85
2022-11-14T22:22:02.471Z,4.84
2022-11-14T22:24:48.155Z,4.83
2022-11-14T22:27:33.777Z,4.84
2022-11-14T22:30:19.705Z,4.86
2022-11-14T22:33:05.531Z,4.85
2022-11-14T22:35:51.293Z,4.84
2022-11-14T22:38:37.787Z,4.82
2022-11-14T22:41:31.754Z,4.84
2022-11-14T22:44:17.554Z,4.79
2022-11-14T22:47:03.225Z,4.74
2022-11-14T22:49:49.109Z,4.72
2022-11-14T22:52:34.689Z,4.69
2022-11-14T22:55:20.490Z,4.68
2022-11-14T22:58:06.324Z,4.65
2022-11-14T23:00:52.486Z,4.65
2022-11-14T23:03:39.623Z,4.64
2022-11-14T23:06:26.263Z,4.62
2022-11-14T23:09:11.788Z,4.61
2022-11-14T23:11:57.525Z,4.61
2022-11-14T23:14:46.172Z,4.62
2022-11-14T23:17:31.678Z,4.62
2022-11-14T23:20:17.412Z,4.58
2022-11-14T23:23:03.709Z,4.56
2022-11-14T23:25:49.906Z,4.55
2022-11-14T23:28:36.118Z,4.55
2022-11-14T23:31:21.949Z,4.53
2022-11-14T23:34:07.641Z,4.52
2022-11-14T23:36:53.226Z,4.50
2022-11-14T23:39:38.901Z,4.48
2022-11-14T23:42:24.729Z,4.46
2022-11-14T23:45:10.572Z,4.44
2022-11-14T23:47:56.379Z,4.41
2022-11-14T23:50:42.932Z,4.38
2022-11-14T23:53:28.963Z,4.37
2022-11-14T23:56:16.157Z,4.36
2022-11-14T23:59:01.608Z,4.35
